createdAt,value
2022-10-16T00:01:21.452Z,16.98
2022-10-16T00:03:48.998Z,16.93
2022-10-16T00:06:17.639Z,16.85
2022-10-16T00:08:44.768Z,16.85
2022-10-16T00:11:17.722Z,16.85
2022-10-16T00:13:46.406Z,16.87
2022-10-16T00:16:14.166Z,16.91
2022-10-16T00:18:41.693Z,16.91
2022-10-16T00:21:23.969Z,16.96
2022-10-16T00:24:10.086Z,17.04
2022-10-16T00:26:38.469Z,17.09
2022-10-16T00:29:06.646Z,16.99
2022-10-16T00:31:33.757Z,17.02
2022-10-16T00:34:01.333Z,16.88
2022-10-16T00:36:28.269Z,16.89
2022-10-16T00:38:58.406Z,16.94
2022-10-16T00:41:25.859Z,16.86
2022-10-16T00:43:56.850Z,16.90
2022-10-16T00:46:31.653Z,16.94
2022-10-16T00:49:13.755Z,16.94
2022-10-16T00:51:46.487Z,16.85
2022-10-16T00:54:17.921Z,16.76
2022-10-16T00:56:46.813Z,16.91
2022-10-16T00:59:25.592Z,16.92
2022-10-16T01:01:53.431Z,16.91
2022-10-16T01:04:22.327Z,16.79
2022-10-16T01:07:02.926Z,16.76
2022-10-16T01:09:51.157Z,16.88
2022-10-16T01:12:32.416Z,17.03
2022-10-16T01:15:04.972Z,17.07
2022-10-16T01:17:47.093Z,17.11
2022-10-16T01:20:35.343Z,17.03
2022-10-16T01:23:26.231Z,16.94
2022-10-16T01:26:04.280Z,16.91
2022-10-16T01:28:40.844Z,16.78
2022-10-16T01:31:10.449Z,16.96
2022-10-16T01:33:43.226Z,16.84
2022-10-16T01:36:34.901Z,17.00
2022-10-16T01:39:02.937Z,16.92
2022-10-16T01:41:35.701Z,16.87
2022-10-16T01:44:11.400Z,17.03
2022-10-16T01:46:42.078Z,17.11
2022-10-16T01:49:11.347Z,17.08
2022-10-16T01:51:38.429Z,17.08
2022-10-16T01:54:08.973Z,17.11
2022-10-16T01:56:36.737Z,16.99
2022-10-16T01:59:10.721Z,16.97
2022-10-16T02:01:41.366Z,17.00
2022-10-16T02:04:18.373Z,16.93
2022-10-16T02:06:45.167Z,16.82
2022-10-16T02:09:12.185Z,17.04
2022-10-16T02:11:38.901Z,17.00
2022-10-16T02:14:07.876Z,16.94
2022-10-16T02:16:37.971Z,17.00
2022-10-16T02:19:06.629Z,16.99
2022-10-16T02:21:44.473Z,17.03
2022-10-16T02:24:38.528Z,17.03
2022-10-16T02:27:12.767Z,17.01
2022-10-16T02:29:54.705Z,16.92
2022-10-16T02:32:25.843Z,17.05
2022-10-16T02:34:53.624Z,17.07
2022-10-16T02:37:20.472Z,17.07
2022-10-16T02:39:47.147Z,17.06
2022-10-16T02:42:15.488Z,17.00
2022-10-16T02:44:42.205Z,16.78
2022-10-16T02:47:08.997Z,16.96
2022-10-16T02:49:35.765Z,16.82
2022-10-16T02:52:02.686Z,16.90
2022-10-16T02:54:29.385Z,16.92
2022-10-16T02:56:56.065Z,16.74
2022-10-16T02:59:22.781Z,16.81
2022-10-16T03:01:49.401Z,16.90
2022-10-16T03:04:16.026Z,16.89
2022-10-16T03:06:42.714Z,16.77
2022-10-16T03:09:09.577Z,16.86
2022-10-16T03:11:36.203Z,16.91
2022-10-16T03:14:02.971Z,16.81
2022-10-16T03:16:29.699Z,16.74
2022-10-16T03:18:56.321Z,16.78
2022-10-16T03:21:23.061Z,16.76
2022-10-16T03:23:49.742Z,16.71
2022-10-16T03:26:16.401Z,16.85
2022-10-16T03:28:43.119Z,16.83
2022-10-16T03:31:09.804Z,16.78
2022-10-16T03:33:36.470Z,16.82
2022-10-16T03:36:03.290Z,16.85
2022-10-16T03:38:30.118Z,16.76
2022-10-16T03:40:56.793Z,16.91
2022-10-16T03:43:23.538Z,16.96
2022-10-16T03:45:52.416Z,16.74
2022-10-16T03:48:20.181Z,16.97
2022-10-16T03:50:48.986Z,17.00
2022-10-16T03:53:16.182Z,16.97
2022-10-16T03:55:43.720Z,17.01
2022-10-16T03:58:10.470Z,16.97
2022-10-16T04:00:37.256Z,16.92
2022-10-16T04:03:03.953Z,16.93
2022-10-16T04:05:30.728Z,16.82
2022-10-16T04:07:57.379Z,16.79
2022-10-16T04:10:24.078Z,16.79
2022-10-16T04:12:50.927Z,16.74
2022-10-16T04:15:17.755Z,16.77
2022-10-16T04:17:44.460Z,16.61
2022-10-16T04:20:11.392Z,16.56
2022-10-16T04:22:38.246Z,16.59
2022-10-16T04:25:05.709Z,16.64
2022-10-16T04:27:32.543Z,16.57
2022-10-16T04:30:00.822Z,16.70
2022-10-16T04:32:28.008Z,16.69
2022-10-16T04:34:54.747Z,16.68
2022-10-16T04:37:26.332Z,16.60
2022-10-16T04:39:54.361Z,16.37
2022-10-16T04:42:22.305Z,16.60
2022-10-16T04:44:48.937Z,16.53
2022-10-16T04:47:15.773Z,16.50
2022-10-16T04:49:42.628Z,16.50
2022-10-16T04:52:10.661Z,16.57
2022-10-16T04:54:37.369Z,16.59
2022-10-16T04:57:05.743Z,16.57
2022-10-16T04:59:32.498Z,16.60
2022-10-16T05:01:59.138Z,16.55
2022-10-16T05:04:25.902Z,16.60
2022-10-16T05:06:52.576Z,16.40
2022-10-16T05:09:19.336Z,16.62
2022-10-16T05:11:46.010Z,16.57
2022-10-16T05:14:12.730Z,16.45
2022-10-16T05:16:39.336Z,16.22
2022-10-16T05:21:52.628Z,16.37
2022-10-16T05:24:19.335Z,16.38
2022-10-16T05:26:46.014Z,16.44
2022-10-16T05:29:12.960Z,16.46
2022-10-16T05:31:39.636Z,16.43
2022-10-16T05:34:06.371Z,16.15
2022-10-16T05:36:33.089Z,16.25
2022-10-16T05:38:59.790Z,16.16
2022-10-16T05:41:27.218Z,16.21
2022-10-16T05:43:54.176Z,16.25
2022-10-16T05:46:21.070Z,16.19
2022-10-16T05:48:47.691Z,16.29
2022-10-16T05:51:15.849Z,16.13
2022-10-16T05:56:12.659Z,16.36
2022-10-16T05:58:41.438Z,16.46
2022-10-16T06:01:12.064Z,16.42
2022-10-16T06:03:39.077Z,16.43
2022-10-16T06:06:13.210Z,16.45
2022-10-16T06:08:41.421Z,16.45
2022-10-16T06:11:12.365Z,16.48
2022-10-16T06:13:40.504Z,16.45
2022-10-16T06:16:07.707Z,16.49
2022-10-16T06:18:34.377Z,16.47
2022-10-16T06:21:07.561Z,16.49
2022-10-16T06:23:34.298Z,16.41
2022-10-16T06:26:09.237Z,16.37
2022-10-16T06:28:36.150Z,16.21
2022-10-16T06:31:08.083Z,16.30
2022-10-16T06:33:36.788Z,16.27
2022-10-16T06:36:09.152Z,16.23
2022-10-16T06:38:36.747Z,16.25
2022-10-16T06:41:03.911Z,16.28
2022-10-16T06:43:36.091Z,16.33
2022-10-16T06:46:04.782Z,16.33
2022-10-16T06:48:32.025Z,16.34
2022-10-16T06:51:13.835Z,16.42
2022-10-16T06:54:07.912Z,16.41
2022-10-16T06:56:35.310Z,16.28
2022-10-16T06:59:02.654Z,16.26
2022-10-16T07:01:29.699Z,16.31
2022-10-16T07:03:56.584Z,16.58
2022-10-16T07:06:25.419Z,16.64
2022-10-16T07:08:52.502Z,16.52
2022-10-16T07:11:21.752Z,16.49
2022-10-16T07:13:54.371Z,16.45
2022-10-16T07:16:24.864Z,16.49
2022-10-16T07:18:55.195Z,16.71
2022-10-16T07:21:23.455Z,16.91
2022-10-16T07:23:59.687Z,17.00
2022-10-16T07:26:27.748Z,17.15
2022-10-16T07:28:54.949Z,17.30
2022-10-16T07:31:22.436Z,17.40
2022-10-16T07:33:49.401Z,17.55
2022-10-16T07:36:18.590Z,17.41
2022-10-16T07:38:46.105Z,17.65
2022-10-16T07:41:15.531Z,17.86
2022-10-16T07:43:47.032Z,17.87
2022-10-16T07:46:13.950Z,17.96
2022-10-16T07:48:40.978Z,17.85
2022-10-16T07:51:08.275Z,18.12
2022-10-16T07:53:35.275Z,18.22
2022-10-16T07:56:04.981Z,18.13
2022-10-16T07:58:32.116Z,18.18
2022-10-16T08:00:59.223Z,18.19
2022-10-16T08:03:26.804Z,18.23
2022-10-16T08:05:53.835Z,18.46
2022-10-16T08:08:20.820Z,18.37
2022-10-16T08:10:47.608Z,18.59
2022-10-16T08:13:16.309Z,18.73
2022-10-16T08:15:44.432Z,18.67
2022-10-16T08:18:13.152Z,18.51
2022-10-16T08:20:40.891Z,18.65
2022-10-16T08:23:08.263Z,18.89
2022-10-16T08:25:38.598Z,18.82
2022-10-16T08:28:06.757Z,19.13
2022-10-16T08:30:34.540Z,19.61
2022-10-16T08:33:02.458Z,19.83
2022-10-16T08:35:29.137Z,19.93
2022-10-16T08:37:55.929Z,19.85
2022-10-16T08:40:26.552Z,20.07
2022-10-16T08:43:24.245Z,19.95
2022-10-16T08:46:03.263Z,19.70
2022-10-16T08:48:47.448Z,20.05
2022-10-16T08:51:37.955Z,19.87
2022-10-16T08:54:35.623Z,19.55
2022-10-16T08:57:23.100Z,19.76
2022-10-16T08:59:51.243Z,20.03
2022-10-16T09:02:30.350Z,20.35
2022-10-16T09:05:24.051Z,20.62
2022-10-16T09:08:12.365Z,20.93
2022-10-16T09:10:42.946Z,20.65
2022-10-16T09:13:23.440Z,20.29
2022-10-16T09:15:59.729Z,20.57
2022-10-16T09:18:49.616Z,20.40
2022-10-16T09:21:22.186Z,20.58
2022-10-16T09:23:49.536Z,20.71
2022-10-16T09:26:17.696Z,20.66
2022-10-16T09:28:45.097Z,20.65
2022-10-16T09:31:20.711Z,20.55
2022-10-16T09:33:53.576Z,20.48
2022-10-16T09:36:22.101Z,20.46
2022-10-16T09:38:50.629Z,20.68
2022-10-16T09:41:23.131Z,20.77
2022-10-16T09:44:01.277Z,20.71
2022-10-16T09:46:33.970Z,20.95
2022-10-16T09:49:03.334Z,20.89
2022-10-16T09:51:32.016Z,20.99
2022-10-16T09:54:13.522Z,22.11
2022-10-16T09:56:40.354Z,22.82
2022-10-16T09:59:18.947Z,23.13
2022-10-16T10:01:49.020Z,23.17
2022-10-16T10:04:15.925Z,23.65
2022-10-16T10:06:59.142Z,23.66
2022-10-16T10:09:27.726Z,23.81
2022-10-16T10:14:37.882Z,23.36
2022-10-16T10:17:07.604Z,23.42
2022-10-16T10:19:41.803Z,23.37
2022-10-16T10:22:23.155Z,23.48
2022-10-16T10:24:57.173Z,23.17
2022-10-16T10:27:36.370Z,22.82
2022-10-16T10:30:19.574Z,22.96
2022-10-16T10:33:14.733Z,22.95
2022-10-16T10:35:44.111Z,23.03
2022-10-16T10:38:28.233Z,23.13
2022-10-16T10:41:00.570Z,23.51
2022-10-16T10:43:51.915Z,23.61
2022-10-16T10:46:36.361Z,24.63
2022-10-16T10:49:21.949Z,25.01
2022-10-16T10:52:10.777Z,25.14
2022-10-16T10:54:55.173Z,25.39
2022-10-16T11:00:22.631Z,26.22
2022-10-16T11:03:00.401Z,26.29
2022-10-16T11:05:42.090Z,26.19
2022-10-16T11:08:19.735Z,26.23
2022-10-16T11:10:58.474Z,26.26
2022-10-16T11:13:54.806Z,26.12
2022-10-16T11:16:33.161Z,25.78
2022-10-16T11:19:30.611Z,25.98
2022-10-16T11:22:15.965Z,25.84
2022-10-16T11:25:00.708Z,25.68
2022-10-16T11:27:42.780Z,25.81
2022-10-16T11:30:22.090Z,25.51
2022-10-16T11:33:01.632Z,25.57
2022-10-16T11:35:46.913Z,25.32
2022-10-16T11:38:22.574Z,25.61
2022-10-16T11:40:53.798Z,25.80
2022-10-16T11:43:30.034Z,25.67
2022-10-16T11:46:05.378Z,25.97
2022-10-16T11:48:55.152Z,25.84
2022-10-16T11:51:31.398Z,24.72
2022-10-16T11:54:22.552Z,24.08
2022-10-16T11:56:53.817Z,24.00
2022-10-16T11:59:53.473Z,24.51
2022-10-16T12:02:51.910Z,24.67
2022-10-16T12:05:41.374Z,24.59
2022-10-16T12:08:12.484Z,24.51
2022-10-16T12:10:41.608Z,24.19
2022-10-16T12:13:33.354Z,24.00
2022-10-16T12:16:14.977Z,24.50
2022-10-16T12:18:46.735Z,24.73
2022-10-16T12:21:16.705Z,24.25
2022-10-16T12:23:56.031Z,24.09
2022-10-16T12:26:32.379Z,24.13
2022-10-16T12:29:24.135Z,24.28
2022-10-16T12:31:57.495Z,24.19
2022-10-16T12:34:30.951Z,23.99
2022-10-16T12:37:28.815Z,23.92
2022-10-16T12:39:57.672Z,23.73
2022-10-16T12:42:34.508Z,23.72
2022-10-16T12:45:02.247Z,24.32
2022-10-16T12:47:31.726Z,24.94
2022-10-16T12:50:00.403Z,24.36
2022-10-16T12:52:39.212Z,24.06
2022-10-16T12:55:14.059Z,23.78
2022-10-16T12:58:01.726Z,23.44
2022-10-16T13:00:58.958Z,23.13
2022-10-16T13:03:25.628Z,23.02
2022-10-16T13:06:07.368Z,22.82
2022-10-16T13:08:52.388Z,22.96
2022-10-16T13:11:29.960Z,22.98
2022-10-16T13:14:28.757Z,23.06
2022-10-16T13:17:11.957Z,22.97
2022-10-16T13:19:52.334Z,22.84
2022-10-16T13:22:29.009Z,22.78
2022-10-16T13:25:23.443Z,22.72
2022-10-16T13:27:56.047Z,22.74
2022-10-16T13:30:28.327Z,22.66
2022-10-16T13:33:14.235Z,22.38
2022-10-16T13:35:54.857Z,22.42
2022-10-16T13:38:23.807Z,22.38
2022-10-16T13:40:57.596Z,22.33
2022-10-16T13:43:27.280Z,22.25
2022-10-16T13:46:15.599Z,22.23
2022-10-16T13:48:42.848Z,22.07
2022-10-16T13:51:19.616Z,22.09
2022-10-16T13:53:47.464Z,22.03
2022-10-16T13:56:17.532Z,21.88
2022-10-16T13:58:45.606Z,21.91
2022-10-16T14:01:28.681Z,21.84
2022-10-16T14:04:05.161Z,22.11
2022-10-16T14:06:33.208Z,22.15
2022-10-16T14:09:22.172Z,21.96
2022-10-16T14:11:56.224Z,22.15
2022-10-16T14:14:24.147Z,22.11
2022-10-16T14:16:51.639Z,21.94
2022-10-16T14:19:18.406Z,22.03
2022-10-16T14:21:45.502Z,21.98
2022-10-16T14:24:14.306Z,21.99
2022-10-16T14:26:50.496Z,21.88
2022-10-16T14:29:21.706Z,21.85
2022-10-16T14:32:02.419Z,21.70
2022-10-16T14:34:40.876Z,21.72
2022-10-16T14:37:18.159Z,21.54
2022-10-16T14:39:51.111Z,21.72
2022-10-16T14:42:20.759Z,21.76
2022-10-16T14:44:48.569Z,21.75
2022-10-16T14:47:23.128Z,21.73
2022-10-16T14:49:49.933Z,21.69
2022-10-16T14:52:16.726Z,21.55
2022-10-16T14:54:44.364Z,21.37
2022-10-16T14:57:19.757Z,21.39
2022-10-16T14:59:47.617Z,21.20
2022-10-16T15:02:20.413Z,21.11
2022-10-16T15:04:47.784Z,20.97
2022-10-16T15:07:14.739Z,21.08
2022-10-16T15:09:45.083Z,21.16
2022-10-16T15:12:16.268Z,21.39
2022-10-16T15:14:42.988Z,21.57
2022-10-16T15:17:11.738Z,21.57
2022-10-16T15:19:38.832Z,21.62
2022-10-16T15:22:05.932Z,21.70
2022-10-16T15:24:32.996Z,21.56
2022-10-16T15:26:59.898Z,21.44
2022-10-16T15:29:26.731Z,21.38
2022-10-16T15:31:53.470Z,21.36
2022-10-16T15:34:20.658Z,21.20
2022-10-16T15:36:47.690Z,21.26
2022-10-16T15:39:17.767Z,21.09
2022-10-16T15:41:51.459Z,21.14
2022-10-16T15:44:18.925Z,21.08
2022-10-16T15:46:45.814Z,21.01
2022-10-16T15:49:13.239Z,20.89
2022-10-16T15:51:41.756Z,20.69
2022-10-16T15:54:09.477Z,20.57
2022-10-16T15:56:37.910Z,20.67
2022-10-16T15:59:05.620Z,20.54
2022-10-16T16:01:36.871Z,20.60
2022-10-16T16:04:10.847Z,20.52
2022-10-16T16:06:47.161Z,20.61
2022-10-16T16:09:15.123Z,20.55
2022-10-16T16:11:42.535Z,20.28
2022-10-16T16:14:14.267Z,20.31
2022-10-16T16:16:42.314Z,20.11
2022-10-16T16:19:11.726Z,19.89
2022-10-16T16:21:39.648Z,19.88
2022-10-16T16:24:09.024Z,19.84
2022-10-16T16:26:40.262Z,19.69
2022-10-16T16:29:07.624Z,19.68
2022-10-16T16:31:35.702Z,19.47
2022-10-16T16:34:03.546Z,19.41
2022-10-16T16:36:30.389Z,19.29
2022-10-16T16:38:57.970Z,19.14
2022-10-16T16:41:27.979Z,18.95
2022-10-16T16:43:55.771Z,18.95
2022-10-16T16:46:23.778Z,18.72
2022-10-16T16:48:51.453Z,18.62
2022-10-16T16:51:20.700Z,18.73
2022-10-16T16:53:50.204Z,18.65
2022-10-16T16:56:17.961Z,18.61
2022-10-16T16:58:49.292Z,18.40
2022-10-16T17:01:20.962Z,18.51
2022-10-16T17:03:51.299Z,18.42
2022-10-16T17:06:22.579Z,18.28
2022-10-16T17:08:50.684Z,18.16
2022-10-16T17:11:23.403Z,18.09
2022-10-16T17:13:55.527Z,17.98
2022-10-16T17:16:30.273Z,17.99
2022-10-16T17:19:00.788Z,17.70
2022-10-16T17:21:30.436Z,17.76
2022-10-16T17:23:57.748Z,17.49
2022-10-16T17:26:24.614Z,17.40
2022-10-16T17:28:53.563Z,17.31
2022-10-16T17:31:23.346Z,17.17
2022-10-16T17:33:51.594Z,17.09
2022-10-16T17:36:19.502Z,17.10
2022-10-16T17:38:46.648Z,17.09
2022-10-16T17:41:24.246Z,17.10
2022-10-16T17:43:52.502Z,17.06
2022-10-16T17:46:22.683Z,17.07
2022-10-16T17:48:54.338Z,16.99
2022-10-16T17:51:26.719Z,16.90
2022-10-16T17:53:56.298Z,16.79
2022-10-16T17:56:24.219Z,16.90
2022-10-16T17:58:53.543Z,16.83
2022-10-16T18:01:29.964Z,16.82
2022-10-16T18:04:02.296Z,16.79
2022-10-16T18:06:29.668Z,16.75
2022-10-16T18:08:57.959Z,16.74
2022-10-16T18:11:24.833Z,16.52
2022-10-16T18:13:53.290Z,16.69
2022-10-16T18:16:20.430Z,16.65
2022-10-16T18:18:47.966Z,16.60
2022-10-16T18:21:17.676Z,16.52
2022-10-16T18:23:50.717Z,16.44
2022-10-16T18:26:20.158Z,16.33
2022-10-16T18:28:47.928Z,16.31
2022-10-16T18:31:17.452Z,16.16
2022-10-16T18:33:50.167Z,16.24
2022-10-16T18:36:29.660Z,16.14
2022-10-16T18:38:57.446Z,16.24
2022-10-16T18:41:25.632Z,16.16
2022-10-16T18:43:52.988Z,16.11
2022-10-16T18:46:22.390Z,16.02
2022-10-16T18:48:51.145Z,16.13
2022-10-16T18:51:21.265Z,16.11
2022-10-16T18:53:51.473Z,16.00
2022-10-16T18:56:21.194Z,15.89
2022-10-16T18:58:49.185Z,15.81
2022-10-16T19:01:20.936Z,15.86
2022-10-16T19:03:49.425Z,15.89
2022-10-16T19:06:17.047Z,15.85
2022-10-16T19:08:44.443Z,15.84
2022-10-16T19:11:17.571Z,15.84
2022-10-16T19:13:45.620Z,15.82
2022-10-16T19:16:21.012Z,15.82
2022-10-16T19:18:50.305Z,15.82
2022-10-16T19:21:18.516Z,15.60
2022-10-16T19:23:45.566Z,15.55
2022-10-16T19:26:15.590Z,15.62
2022-10-16T19:28:43.310Z,15.70
2022-10-16T19:31:16.937Z,15.68
2022-10-16T19:33:43.876Z,15.53
2022-10-16T19:36:11.578Z,15.43
2022-10-16T19:38:39.151Z,15.36
2022-10-16T19:41:11.217Z,15.34
2022-10-16T19:43:38.513Z,15.28
2022-10-16T19:46:25.735Z,15.43
2022-10-16T19:49:01.048Z,15.41
2022-10-16T19:51:29.039Z,15.43
2022-10-16T19:54:01.478Z,15.29
2022-10-16T19:56:29.826Z,15.49
2022-10-16T19:58:58.300Z,15.49
2022-10-16T20:01:27.487Z,15.35
2022-10-16T20:03:54.771Z,15.30
2022-10-16T20:06:22.295Z,15.33
2022-10-16T20:08:51.736Z,15.28
2022-10-16T20:11:24.590Z,15.14
2022-10-16T20:13:51.981Z,15.19
2022-10-16T20:16:19.914Z,15.10
2022-10-16T20:18:48.570Z,15.09
2022-10-16T20:21:18.863Z,14.97
2022-10-16T20:23:47.132Z,14.93
2022-10-16T20:26:13.975Z,15.00
2022-10-16T20:28:41.813Z,14.90
2022-10-16T20:31:12.012Z,14.94
2022-10-16T20:33:39.333Z,14.93
2022-10-16T20:36:11.633Z,14.95
2022-10-16T20:38:38.324Z,14.96
2022-10-16T20:41:06.230Z,14.98
2022-10-16T20:43:33.647Z,14.88
2022-10-16T20:46:08.884Z,14.98
2022-10-16T20:48:36.282Z,14.97
2022-10-16T20:51:18.925Z,14.94
2022-10-16T20:53:47.198Z,14.89
2022-10-16T20:56:18.102Z,14.80
2022-10-16T20:58:45.820Z,14.73
2022-10-16T21:01:15.445Z,14.72
2022-10-16T21:03:43.463Z,14.62
2022-10-16T21:06:11.214Z,14.59
2022-10-16T21:08:40.385Z,14.47
2022-10-16T21:11:11.462Z,14.57
2022-10-16T21:13:38.674Z,14.57
2022-10-16T21:16:05.986Z,14.57
2022-10-16T21:18:32.900Z,14.55
2022-10-16T21:20:59.798Z,14.51
2022-10-16T21:23:26.770Z,14.56
2022-10-16T21:25:53.582Z,14.53
2022-10-16T21:28:20.337Z,14.55
2022-10-16T21:30:47.103Z,14.55
2022-10-16T21:33:13.832Z,14.57
2022-10-16T21:35:40.684Z,14.57
2022-10-16T21:38:07.412Z,14.60
2022-10-16T21:40:34.502Z,14.52
2022-10-16T21:43:01.314Z,14.38
2022-10-16T21:45:28.115Z,14.64
2022-10-16T21:50:26.619Z,14.50
2022-10-16T21:52:53.430Z,14.60
2022-10-16T21:55:20.066Z,14.65
2022-10-16T21:57:46.822Z,14.55
2022-10-16T22:00:13.946Z,14.50
2022-10-16T22:02:40.649Z,14.52
2022-10-16T22:05:07.782Z,14.53
2022-10-16T22:07:34.441Z,14.51
2022-10-16T22:10:01.161Z,14.52
2022-10-16T22:12:29.230Z,14.53
2022-10-16T22:14:55.942Z,14.54
2022-10-16T22:17:22.612Z,14.55
2022-10-16T22:19:49.321Z,14.53
2022-10-16T22:22:15.974Z,14.43
2022-10-16T22:24:42.637Z,14.44
2022-10-16T22:27:09.385Z,14.46
2022-10-16T22:29:35.989Z,14.30
2022-10-16T22:32:02.639Z,14.38
2022-10-16T22:34:29.543Z,14.33
2022-10-16T22:36:56.213Z,14.31
2022-10-16T22:39:22.920Z,14.25
2022-10-16T22:41:49.637Z,14.17
2022-10-16T22:44:16.248Z,14.07
2022-10-16T22:46:42.958Z,13.98
2022-10-16T22:49:09.650Z,14.20
2022-10-16T22:51:36.496Z,14.21
2022-10-16T22:54:03.317Z,14.15
2022-10-16T22:56:29.970Z,14.10
2022-10-16T22:58:56.732Z,14.21
2022-10-16T23:01:27.159Z,14.16
2022-10-16T23:03:53.905Z,13.92
2022-10-16T23:06:20.698Z,13.97
2022-10-16T23:08:55.254Z,14.03
2022-10-16T23:11:22.184Z,14.06
2022-10-16T23:13:49.586Z,14.09
2022-10-16T23:16:18.737Z,13.90
2022-10-16T23:18:46.058Z,14.00
2022-10-16T23:21:22.383Z,13.87
2022-10-16T23:23:50.262Z,13.93
2022-10-16T23:26:20.532Z,13.85
2022-10-16T23:28:47.990Z,13.82
2022-10-16T23:31:16.723Z,13.83
2022-10-16T23:33:43.772Z,13.82
2022-10-16T23:36:13.811Z,13.77
2022-10-16T23:38:41.137Z,13.59
2022-10-16T23:41:08.117Z,13.55
2022-10-16T23:43:35.009Z,13.69
2022-10-16T23:46:02.545Z,13.62
2022-10-16T23:48:29.950Z,13.71
2022-10-16T23:50:56.964Z,13.67
2022-10-16T23:53:24.314Z,13.67
2022-10-16T23:55:51.019Z,13.61
2022-10-16T23:58:18.065Z,13.58
